Explorer - northwestern half: Past 24 Hour Conditions

 

Vancouver Int'l Airport

01:00 AM PDT 01 October 2014
This table is a summary of hourly weather conditions for the past 24 hours.
Date / Time
(PDT)
Wind(knots) Conditions Visibility(km) Pressure(kPa) Air tempC) Relative humidity(%) Dew pointC)
01 October 2014
1:00 NW 5 Mostly Cloudy 32 102.1 13 89 11
0:00 WNW 5 Partly Cloudy 32 102.0 13 92 12
30 September 2014
23:00 W 9 Mainly Clear 32 102.0 14 83 11
22:00 WSW 13 Mainly Clear 32 102.0 14 79 11
21:00 WSW 13 Mainly Clear 32 101.9 15 80 11
20:00 W 18 Mainly Clear 48 101.9 15 80 11
19:00 WSW 14 gust 24 Mainly Clear 48 101.8 15 80 11
18:00 W 16 Partly Cloudy 48 101.8 16 68 10
17:00 W 12 gust 21 Partly Cloudy 48 101.8 17 69 11
16:00 W 16 gust 25 Mainly Sunny 48 101.8 17 66 11
15:00 W 19 Mainly Sunny 48 101.8 18 66 11
14:00 W 18 Partly Cloudy 48 101.8 18 64 11
13:00 WSW 18 Partly Cloudy 48 101.8 16 77 12
12:00 W 16 gust 22 Partly Cloudy 32 101.8 16 76 12
11:00 WSW 16 gust 25 Mainly Sunny 32 101.7 16 80 12
10:00 W 16 Mainly Sunny 32 101.7 15 83 12
9:00 W 14 Mainly Sunny 32 101.7 15 87 12
8:00 W 11 Mainly Sunny 32 101.6 14 91 12
7:00 W 6 Partly Cloudy 24 101.6 13 93 12
6:00 WNW 5 Mostly Cloudy 24 101.5 13 92 12
5:00 W 8 Mostly Cloudy 24 101.5 14 91 12
4:00 W 10 Mostly Cloudy 24 101.5 14 90 12
3:00 W 10 Partly Cloudy 24 101.4 13 91 12
2:00 W 10 Mostly Cloudy 19 101.4 14 94 13
1:00 WNW 10 Mostly Cloudy 24 101.3 14 91 12
 
Map of Pacific - South Coast marine weather areas Tsawwassen Ferry Terminal South Nomad - 46036 Sentry Shoal - 46131 South Brooks - 46132 Halibut Bank - 46146 South Moresby - 46147 South Hecate Strait - 46185 West Sea Otter - 46204 La Perouse Bank - 46206 East Dellwood - 46207 Discovery Island Esquimalt Harbour Kelp Reefs Malahat Race Rocks Lightstation Saturna Island Sheringham Point University of Victoria Victoria Gonzales Victoria Int'l Airport Ballenas Islands Campbell River Airport Comox Airport Entrance Island Fanny Island Nanaimo Airport Port Hardy Airport Sisters Islets Estevan Point Sartine Island Solander Island Tofino Airport Grief Point Powell River Airport Sechelt Cape St.James Bella Bella Airport Bella Coola Airport Cathedral Point Herbert Island Point Atkinson Sand Heads Lightstation Vancouver Harbour Vancouver Int'l Airport West Vancouver Port Alberni Howe Sound - Pam Rocks Squamish Airport